createdAt,value
2019-01-11T00:00:26.286Z,100664.05
2019-01-11T00:03:28.316Z,100658.33
2019-01-11T00:06:30.270Z,100658.81
2019-01-11T00:09:32.193Z,100664.98
2019-01-11T00:12:34.178Z,100658.92
2019-01-11T00:15:36.226Z,100661.63
2019-01-11T00:18:38.212Z,100668.85
2019-01-11T00:21:41.636Z,100667.20
2019-01-11T00:24:43.646Z,100663.62
2019-01-11T00:27:45.537Z,100661.53
2019-01-11T00:30:47.509Z,100670.90
2019-01-11T00:33:49.409Z,100663.58
2019-01-11T00:36:51.343Z,100669.52
2019-01-11T00:39:53.286Z,100671.30
2019-01-11T00:42:55.220Z,100674.75
2019-01-11T00:45:57.216Z,100679.25
2019-01-11T00:48:59.147Z,100678.81
2019-01-11T00:52:01.346Z,100685.73
2019-01-11T00:55:06.433Z,100689.38
2019-01-11T00:58:08.326Z,100692.02
2019-01-11T01:01:10.339Z,100692.73
2019-01-11T01:04:12.786Z,100694.41
2019-01-11T01:07:15.347Z,100690.73
2019-01-11T01:10:19.204Z,100690.43
2019-01-11T01:13:21.121Z,100694.80
2019-01-11T01:16:23.212Z,100699.93
2019-01-11T01:19:25.178Z,100696.23
2019-01-11T01:22:27.072Z,100692.66
2019-01-11T01:25:29.151Z,100694.94
2019-01-11T01:28:31.083Z,100688.83
2019-01-11T01:31:33.024Z,100692.38
2019-01-11T01:34:34.902Z,100686.95
2019-01-11T01:37:36.972Z,100688.44
2019-01-11T01:40:38.905Z,100686.75
2019-01-11T01:43:40.943Z,100687.81
2019-01-11T01:46:42.861Z,100690.63
2019-01-11T01:49:44.794Z,100692.19
2019-01-11T01:52:46.734Z,100687.58
2019-01-11T01:55:49.045Z,100696.39
2019-01-11T01:58:51.054Z,100696.30
2019-01-11T02:01:52.983Z,100697.25
2019-01-11T02:04:55.011Z,100694.54
2019-01-11T02:07:57.002Z,100694.11
2019-01-11T02:10:58.933Z,100699.00
2019-01-11T02:14:00.927Z,100702.05
2019-01-11T02:17:03.467Z,100697.42
2019-01-11T02:20:11.474Z,100691.69
2019-01-11T02:23:13.350Z,100694.11
2019-01-11T02:26:15.323Z,100684.11
2019-01-11T02:29:17.210Z,100690.80
2019-01-11T02:32:19.208Z,100686.30
2019-01-11T02:35:21.056Z,100682.86
2019-01-11T02:38:22.956Z,100676.59
2019-01-11T02:41:24.879Z,100676.37
2019-01-11T02:44:26.914Z,100670.97
2019-01-11T02:47:28.907Z,100673.69
2019-01-11T02:50:30.909Z,100678.39
2019-01-11T02:53:33.310Z,100680.97
2019-01-11T02:56:35.301Z,100678.48
2019-01-11T02:59:37.288Z,100682.42
2019-01-11T03:02:39.353Z,100671.03
2019-01-11T03:05:41.505Z,100671.80
2019-01-11T03:08:43.512Z,100671.50
2019-01-11T03:11:45.511Z,100669.09
2019-01-11T03:14:49.096Z,100675.58
2019-01-11T03:17:51.150Z,100669.95
2019-01-11T03:20:53.113Z,100671.01
2019-01-11T03:23:55.011Z,100671.01
2019-01-11T03:26:56.990Z,100676.03
2019-01-11T03:29:58.948Z,100670.38
2019-01-11T03:33:00.932Z,100677.80
2019-01-11T03:36:03.584Z,100668.06
2019-01-11T03:39:05.786Z,100672.86
2019-01-11T03:42:09.495Z,100663.86
2019-01-11T03:45:14.467Z,100673.66
2019-01-11T03:48:16.451Z,100663.55
2019-01-11T03:51:18.427Z,100662.80
2019-01-11T03:54:20.392Z,100657.80
2019-01-11T03:57:22.501Z,100657.70
2019-01-11T04:00:24.386Z,100660.71
2019-01-11T04:03:26.340Z,100659.48
2019-01-11T04:06:28.882Z,100659.29
2019-01-11T04:09:30.857Z,100665.25
2019-01-11T04:12:32.828Z,100666.30
2019-01-11T04:15:35.749Z,100663.72
2019-01-11T04:18:40.287Z,100671.23
2019-01-11T04:21:44.483Z,100666.14
2019-01-11T04:24:48.326Z,100659.98
2019-01-11T04:27:51.076Z,100668.13
2019-01-11T04:30:53.021Z,100665.41
2019-01-11T04:33:55.034Z,100670.33
2019-01-11T04:36:57.029Z,100669.80
2019-01-11T04:39:59.009Z,100667.84
2019-01-11T04:43:00.927Z,100663.25
2019-01-11T04:46:03.012Z,100667.02
2019-01-11T04:49:05.036Z,100667.54
2019-01-11T04:52:07.024Z,100669.75
2019-01-11T04:55:09.169Z,100671.95
2019-01-11T04:58:11.167Z,100668.08
2019-01-11T05:01:13.128Z,100675.81
2019-01-11T05:04:15.469Z,100669.13
2019-01-11T05:07:18.815Z,100665.59
2019-01-11T05:10:20.787Z,100668.30
2019-01-11T05:13:30.296Z,100671.42
2019-01-11T05:16:39.310Z,100670.70
2019-01-11T05:19:36.305Z,100664.23
2019-01-11T05:22:38.296Z,100666.21
2019-01-11T05:25:40.230Z,100668.39
2019-01-11T05:28:42.188Z,100672.06
2019-01-11T05:31:45.953Z,100663.39
2019-01-11T05:34:47.940Z,100659.45
2019-01-11T05:37:49.850Z,100660.69
2019-01-11T05:40:51.839Z,100662.67
2019-01-11T05:43:53.747Z,100661.95
2019-01-11T05:46:55.703Z,100666.02
2019-01-11T05:49:57.672Z,100667.14
2019-01-11T05:52:59.640Z,100659.66
2019-01-11T05:56:01.925Z,100658.73
2019-01-11T05:59:04.641Z,100656.86
2019-01-11T06:02:06.578Z,100660.60
2019-01-11T06:05:10.400Z,100667.57
2019-01-11T06:08:19.752Z,100665.38
2019-01-11T06:11:21.770Z,100663.00
2019-01-11T06:14:23.677Z,100657.36
2019-01-11T06:17:25.588Z,100655.27
2019-01-11T06:20:30.357Z,100661.33
2019-01-11T06:23:31.618Z,100660.06
2019-01-11T06:26:34.848Z,100658.91
2019-01-11T06:29:36.816Z,100661.28
2019-01-11T06:32:38.759Z,100658.76
2019-01-11T06:35:41.568Z,100653.64
2019-01-11T06:38:43.539Z,100665.37
2019-01-11T06:41:47.385Z,100669.01
2019-01-11T06:44:49.345Z,100662.52
2019-01-11T06:47:51.330Z,100661.34
2019-01-11T06:50:53.362Z,100663.91
2019-01-11T06:53:55.413Z,100663.03
2019-01-11T06:56:57.300Z,100665.59
2019-01-11T06:59:59.304Z,100661.82
2019-01-11T07:03:01.266Z,100660.34
2019-01-11T07:06:03.291Z,100659.92
2019-01-11T07:09:06.531Z,100654.91
2019-01-11T07:12:08.438Z,100658.84
2019-01-11T07:15:12.530Z,100657.73
2019-01-11T07:18:14.890Z,100660.99
2019-01-11T07:21:16.983Z,100666.55
2019-01-11T07:24:18.956Z,100659.38
2019-01-11T07:27:20.869Z,100666.62
2019-01-11T07:30:25.104Z,100658.58
2019-01-11T07:33:27.155Z,100659.99
2019-01-11T07:36:29.753Z,100670.84
2019-01-11T07:39:31.664Z,100667.75
2019-01-11T07:42:33.665Z,100666.81
2019-01-11T07:45:35.614Z,100660.68
2019-01-11T07:48:37.594Z,100662.97
2019-01-11T07:51:39.660Z,100657.25
2019-01-11T07:54:41.649Z,100660.67
2019-01-11T07:57:43.643Z,100660.91
2019-01-11T08:00:45.608Z,100657.34
2019-01-11T08:03:47.537Z,100650.70
2019-01-11T08:06:50.594Z,100642.95
2019-01-11T08:09:53.183Z,100644.06
2019-01-11T08:12:55.247Z,100644.48
2019-01-11T08:15:57.178Z,100646.92
2019-01-11T08:18:59.204Z,100634.66
2019-01-11T08:22:01.271Z,100633.78
2019-01-11T08:25:05.503Z,100635.45
2019-01-11T08:28:07.551Z,100630.38
2019-01-11T08:31:09.559Z,100624.91
2019-01-11T08:34:11.510Z,100620.97
2019-01-11T08:37:14.788Z,100613.53
2019-01-11T08:40:16.747Z,100610.98
2019-01-11T08:43:18.714Z,100606.97
2019-01-11T08:46:20.686Z,100607.38
2019-01-11T08:49:22.673Z,100602.87
2019-01-11T08:52:24.659Z,100604.27
2019-01-11T08:55:28.496Z,100599.18
2019-01-11T08:58:30.494Z,100600.38
2019-01-11T09:01:32.454Z,100600.02
2019-01-11T09:04:34.393Z,100601.62
2019-01-11T09:07:36.388Z,100599.28
2019-01-11T09:10:38.401Z,100594.09
2019-01-11T09:13:40.423Z,100590.27
2019-01-11T09:16:43.470Z,100590.70
2019-01-11T09:19:45.424Z,100582.50
2019-01-11T09:22:47.524Z,100572.17
2019-01-11T09:25:49.562Z,100558.43
2019-01-11T09:28:51.558Z,100557.48
2019-01-11T09:31:53.568Z,100558.42
2019-01-11T09:34:55.517Z,100551.23
2019-01-11T09:37:58.061Z,100546.70
2019-01-11T09:41:00.004Z,100545.22
2019-01-11T09:44:01.993Z,100542.70
2019-01-11T09:47:03.902Z,100540.50
2019-01-11T09:50:08.188Z,100541.39
2019-01-11T09:53:10.204Z,100526.23
2019-01-11T09:56:12.202Z,100524.22
2019-01-11T09:59:14.125Z,100524.91
2019-01-11T10:02:17.914Z,100531.64
2019-01-11T10:05:19.825Z,100519.78
2019-01-11T10:08:21.789Z,100522.97
2019-01-11T10:11:24.081Z,100515.27
2019-01-11T10:14:26.113Z,100512.80
2019-01-11T10:17:28.124Z,100502.04
2019-01-11T10:20:30.597Z,100498.34
2019-01-11T10:23:32.706Z,100494.10
2019-01-11T10:26:34.726Z,100500.01
2019-01-11T10:29:36.674Z,100488.23
2019-01-11T10:32:38.697Z,100487.46
2019-01-11T10:35:40.691Z,100476.08
2019-01-11T10:38:42.698Z,100474.75
2019-01-11T10:41:44.641Z,100468.20
2019-01-11T10:44:46.595Z,100463.87
2019-01-11T10:47:51.558Z,100457.98
2019-01-11T10:50:53.535Z,100455.44
2019-01-11T10:53:56.589Z,100449.28
2019-01-11T10:56:58.594Z,100444.63
2019-01-11T11:00:00.762Z,100433.13
2019-01-11T11:03:02.924Z,100435.33
2019-01-11T11:06:04.920Z,100429.39
2019-01-11T11:09:06.858Z,100425.24
2019-01-11T11:12:08.961Z,100416.66
2019-01-11T11:15:13.552Z,100412.72
2019-01-11T11:18:15.442Z,100404.46
2019-01-11T11:21:18.026Z,100405.21
2019-01-11T11:24:20.120Z,100387.19
2019-01-11T11:27:22.102Z,100387.72
2019-01-11T11:30:24.961Z,100376.94
2019-01-11T11:33:26.911Z,100377.02
2019-01-11T11:36:28.879Z,100367.80
2019-01-11T11:39:30.980Z,100359.90
2019-01-11T11:42:32.878Z,100361.17
2019-01-11T11:45:34.853Z,100349.24
2019-01-11T11:48:36.789Z,100344.10
2019-01-11T11:51:41.491Z,100345.91
2019-01-11T11:54:42.658Z,100337.14
2019-01-11T11:57:44.636Z,100328.39
2019-01-11T12:00:46.669Z,100326.90
2019-01-11T12:03:48.672Z,100335.34
2019-01-11T12:06:50.637Z,100324.80
2019-01-11T12:09:52.582Z,100328.13
2019-01-11T12:12:55.075Z,100318.75
2019-01-11T12:15:57.109Z,100306.83
2019-01-11T12:18:59.072Z,100307.49
2019-01-11T12:22:01.749Z,100302.44
2019-01-11T12:25:06.063Z,100293.63
2019-01-11T12:28:08.071Z,100285.73
2019-01-11T12:31:10.032Z,100277.70
2019-01-11T12:34:12.094Z,100269.80
2019-01-11T12:37:13.992Z,100256.81
2019-01-11T12:40:16.556Z,100233.37
2019-01-11T12:43:18.514Z,100234.27
2019-01-11T12:46:20.569Z,100231.73
2019-01-11T12:49:22.507Z,100230.87
2019-01-11T12:52:24.506Z,100227.09
2019-01-11T12:55:26.545Z,100218.88
2019-01-11T12:58:28.511Z,100200.20
2019-01-11T13:01:30.438Z,100203.20
2019-01-11T13:04:32.370Z,100194.53
2019-01-11T13:07:35.273Z,100191.98
2019-01-11T13:10:37.211Z,100186.84
2019-01-11T13:13:39.204Z,100184.78
2019-01-11T13:16:41.245Z,100180.81
2019-01-11T13:19:43.251Z,100175.17
2019-01-11T13:22:45.422Z,100170.25
2019-01-11T13:25:47.514Z,100160.55
2019-01-11T13:28:49.520Z,100156.63
2019-01-11T13:31:51.474Z,100155.06
2019-01-11T13:34:53.587Z,100138.55
2019-01-11T13:37:55.569Z,100139.69
2019-01-11T13:40:57.564Z,100137.47
2019-01-11T13:43:59.486Z,100127.98
2019-01-11T13:47:01.466Z,100120.06
2019-01-11T13:50:06.958Z,100116.00
2019-01-11T13:53:09.014Z,100111.85
2019-01-11T13:56:11.081Z,100117.89
2019-01-11T13:59:13.214Z,100106.75
2019-01-11T14:02:15.315Z,100101.45
2019-01-11T14:05:17.360Z,100097.25
2019-01-11T14:08:19.396Z,100094.82
2019-01-11T14:11:21.382Z,100085.86
2019-01-11T14:14:23.309Z,100071.61
2019-01-11T14:17:25.318Z,100075.84
2019-01-11T14:20:27.255Z,100074.09
2019-01-11T14:23:29.966Z,100071.02
2019-01-11T14:26:32.017Z,100069.30
2019-01-11T14:29:34.203Z,100066.66
2019-01-11T14:32:36.256Z,100067.57
2019-01-11T14:35:40.117Z,100062.44
2019-01-11T14:38:42.136Z,100063.59
2019-01-11T14:41:44.722Z,100060.80
2019-01-11T14:44:46.673Z,100056.28
2019-01-11T14:47:49.037Z,100047.41
2019-01-11T14:50:50.962Z,100048.28
2019-01-11T14:53:52.948Z,100042.25
2019-01-11T14:56:54.967Z,100032.02
2019-01-11T14:59:57.004Z,100028.33
2019-01-11T15:02:58.950Z,100029.60
2019-01-11T15:06:01.046Z,100032.31
2019-01-11T15:09:05.838Z,100024.88
2019-01-11T15:12:07.832Z,100020.94
2019-01-11T15:15:10.540Z,100011.08
2019-01-11T15:18:12.641Z,100010.92
2019-01-11T15:21:14.593Z,100002.26
2019-01-11T15:24:18.130Z,99998.11
2019-01-11T15:27:20.361Z,100000.41
2019-01-11T15:30:22.327Z,99999.95
2019-01-11T15:33:24.292Z,99992.86
2019-01-11T15:36:26.282Z,99993.59
2019-01-11T15:39:28.359Z,99982.77
2019-01-11T15:42:30.517Z,99981.41
2019-01-11T15:45:32.597Z,99975.23
2019-01-11T15:48:42.709Z,99974.17
2019-01-11T15:51:44.671Z,99973.27
2019-01-11T15:54:46.706Z,99960.00
2019-01-11T15:57:48.714Z,99954.63
2019-01-11T16:00:50.722Z,99948.02
2019-01-11T16:03:52.873Z,99947.77
2019-01-11T16:06:55.021Z,99938.91
2019-01-11T16:09:58.257Z,99942.23
2019-01-11T16:13:02.897Z,99933.94
2019-01-11T16:16:07.920Z,99943.50
2019-01-11T16:19:09.923Z,99941.98
2019-01-11T16:22:11.880Z,99941.63
2019-01-11T16:25:16.085Z,99941.50
2019-01-11T16:28:18.195Z,99945.70
2019-01-11T16:31:20.193Z,99942.86
2019-01-11T16:34:22.091Z,99934.20
2019-01-11T16:37:24.040Z,99932.03
2019-01-11T16:40:25.942Z,99922.11
2019-01-11T16:43:28.047Z,99925.92
2019-01-11T16:46:29.955Z,99924.66
2019-01-11T16:49:31.949Z,99926.99
2019-01-11T16:52:33.833Z,99915.55
2019-01-11T16:55:35.810Z,99907.05
2019-01-11T16:58:37.763Z,99902.91
2019-01-11T17:01:39.947Z,99904.72
2019-01-11T17:04:42.011Z,99910.95
2019-01-11T17:07:44.019Z,99903.89
2019-01-11T17:10:45.932Z,99906.48
2019-01-11T17:13:47.916Z,99904.88
2019-01-11T17:16:49.852Z,99895.77
2019-01-11T17:19:51.809Z,99895.64
2019-01-11T17:22:53.775Z,99896.70
2019-01-11T17:25:55.982Z,99895.03
2019-01-11T17:28:58.003Z,99885.42
2019-01-11T17:32:00.015Z,99881.19
2019-01-11T17:35:01.907Z,99876.97
2019-01-11T17:38:03.994Z,99871.10
2019-01-11T17:41:06.149Z,99868.87
2019-01-11T17:44:08.084Z,99875.47
2019-01-11T17:47:10.027Z,99866.98
2019-01-11T17:50:14.389Z,99859.81
2019-01-11T17:53:16.275Z,99860.27
2019-01-11T17:56:18.270Z,99854.11
2019-01-11T17:59:20.268Z,99857.42
2019-01-11T18:02:23.049Z,99855.61
2019-01-11T18:05:24.984Z,99842.07
2019-01-11T18:08:26.985Z,99839.65
2019-01-11T18:11:28.945Z,99846.57
2019-01-11T18:14:30.957Z,99828.43
2019-01-11T18:17:32.876Z,99831.67
2019-01-11T18:20:36.744Z,99836.03
2019-01-11T18:23:39.032Z,99827.44
2019-01-11T18:26:41.105Z,99826.41
2019-01-11T18:29:43.313Z,99825.66
2019-01-11T18:32:48.014Z,99817.07
2019-01-11T18:35:49.920Z,99818.88
2019-01-11T18:38:51.912Z,99812.08
2019-01-11T18:41:53.876Z,99808.77
2019-01-11T18:44:56.917Z,99805.91
2019-01-11T18:47:58.833Z,99804.09
2019-01-11T18:51:00.854Z,99806.70
2019-01-11T18:54:03.131Z,99798.33
2019-01-11T18:57:06.075Z,99798.18
2019-01-11T19:00:23.076Z,99792.16
2019-01-11T19:03:25.100Z,99783.73
2019-01-11T19:06:27.135Z,99783.27
2019-01-11T19:09:29.684Z,99780.42
2019-01-11T19:12:31.609Z,99788.77
2019-01-11T19:15:34.797Z,99778.48
2019-01-11T19:18:36.719Z,99768.27
2019-01-11T19:21:39.641Z,99762.38
2019-01-11T19:24:44.084Z,99763.23
2019-01-11T19:27:46.584Z,99761.97
2019-01-11T19:30:48.954Z,99768.12
2019-01-11T19:33:50.965Z,99761.95
2019-01-11T19:36:54.429Z,99755.03
2019-01-11T19:39:56.810Z,99761.62
2019-01-11T19:42:59.048Z,99751.03
2019-01-11T19:46:01.490Z,99747.13
2019-01-11T19:49:03.672Z,99738.42
2019-01-11T19:52:07.059Z,99745.02
2019-01-11T19:55:10.622Z,99729.82
2019-01-11T19:58:15.020Z,99739.78
2019-01-11T20:01:17.376Z,99727.58
2019-01-11T20:04:21.285Z,99737.95
2019-01-11T20:07:25.044Z,99728.46
2019-01-11T20:10:30.864Z,99722.09
2019-01-11T20:13:33.140Z,99723.45
2019-01-11T20:16:35.797Z,99718.56
2019-01-11T20:19:38.697Z,99715.12
2019-01-11T20:22:45.325Z,99717.55
2019-01-11T20:25:47.740Z,99710.17
2019-01-11T20:28:49.887Z,99698.34
2019-01-11T20:31:52.271Z,99698.27
2019-01-11T20:34:56.086Z,99701.80
2019-01-11T20:37:58.012Z,99698.86
2019-01-11T20:41:00.053Z,99701.78
2019-01-11T20:44:01.942Z,99692.81
2019-01-11T20:47:05.116Z,99699.66
2019-01-11T20:50:10.066Z,99706.19
2019-01-11T20:53:11.982Z,99698.98
2019-01-11T20:56:13.917Z,99697.73
2019-01-11T20:59:16.252Z,99699.44
2019-01-11T21:02:18.239Z,99694.94
2019-01-11T21:05:20.773Z,99689.50
2019-01-11T21:08:25.883Z,99689.19
2019-01-11T21:11:29.656Z,99690.38
2019-01-11T21:14:31.568Z,99683.48
2019-01-11T21:17:37.605Z,99677.90
2019-01-11T21:20:39.872Z,99680.44
2019-01-11T21:23:48.690Z,99670.89
2019-01-11T21:26:48.473Z,99670.73
2019-01-11T21:29:51.923Z,99667.73
2019-01-11T21:32:54.708Z,99675.50
2019-01-11T21:35:58.483Z,99669.27
2019-01-11T21:39:00.701Z,99669.32
2019-01-11T21:42:02.750Z,99673.98
2019-01-11T21:45:08.792Z,99670.52
2019-01-11T21:48:10.917Z,99674.13
2019-01-11T21:51:12.877Z,99679.80
2019-01-11T21:54:14.917Z,99673.11
2019-01-11T21:57:16.964Z,99667.91
2019-01-11T22:00:25.359Z,99668.98
2019-01-11T22:03:27.318Z,99662.19
2019-01-11T22:06:29.291Z,99669.16
2019-01-11T22:09:31.190Z,99663.60
2019-01-11T22:12:33.113Z,99672.08
2019-01-11T22:15:35.071Z,99671.00
2019-01-11T22:18:37.278Z,99672.95
2019-01-11T22:21:39.199Z,99670.05
2019-01-11T22:24:41.479Z,99665.27
2019-01-11T22:27:43.737Z,99666.45
2019-01-11T22:30:46.106Z,99658.39
2019-01-11T22:33:48.240Z,99665.83
2019-01-11T22:36:50.344Z,99666.97
2019-01-11T22:39:52.897Z,99661.25
2019-01-11T22:42:56.182Z,99664.47
2019-01-11T22:45:58.108Z,99672.41
2019-01-11T22:49:00.070Z,99675.13
2019-01-11T22:52:02.074Z,99671.41
2019-01-11T22:55:06.125Z,99676.62
2019-01-11T22:58:08.979Z,99671.59
2019-01-11T23:01:17.800Z,99674.27
2019-01-11T23:04:21.309Z,99668.51
2019-01-11T23:07:26.631Z,99673.31
2019-01-11T23:10:38.879Z,99670.86
2019-01-11T23:13:40.878Z,99678.70
2019-01-11T23:16:42.936Z,99672.31
2019-01-11T23:19:45.054Z,99674.72
2019-01-11T23:22:47.013Z,99678.89
2019-01-11T23:25:49.101Z,99680.61
2019-01-11T23:28:51.143Z,99682.60
2019-01-11T23:31:53.163Z,99680.44
2019-01-11T23:34:55.536Z,99678.07
2019-01-11T23:37:58.744Z,99670.91
2019-01-11T23:41:00.651Z,99677.66
2019-01-11T23:44:02.760Z,99675.95
2019-01-11T23:47:04.809Z,99670.14
2019-01-11T23:50:09.871Z,99673.95
2019-01-11T23:53:11.790Z,99671.81
2019-01-11T23:56:13.792Z,99673.45
2019-01-11T23:59:15.746Z,99675.58
